Medford, Oklahoma
Current Conditions -  °F | °C
As of 7:55 PM on Sunday 21 Dec 2014 (Local Time) from KBKN Reporting Station
Overcast Overcast  
Wind Chill: 37°   Ceiling: 800
Heat Index: 45°   Visibility: 8mi
Dew Point: 45°   Wind: 16mph
Humidity: 100%   Direction: 150°SSE
Pressure: 29.71"   Gusts: 22mph
Location:  36.81°N, 97.73°W
Report Text: KBKN 220155Z AUTO 15014G19KT 8SM OVC008 07/07 A2971 RMK AO2
Loading
Personal Weather Stations






























Interactive Weather Map New forecast layout! Learn more

10-Day Weather Forecast

Advertisements
Track Severe Weather on mobile